createdAt,value
2023-02-25T00:00:35.178Z,10.73
2023-02-25T00:03:02.112Z,10.73
2023-02-25T00:05:31.839Z,10.67
2023-02-25T00:07:59.626Z,10.93
2023-02-25T00:10:26.439Z,10.23
2023-02-25T00:12:53.229Z,9.87
2023-02-25T00:15:20.189Z,9.77
2023-02-25T00:17:48.870Z,10.03
2023-02-25T00:20:17.282Z,10.37
2023-02-25T00:22:44.131Z,10.57
2023-02-25T00:25:11.007Z,9.60
2023-02-25T00:27:40.925Z,9.23
2023-02-25T00:30:10.888Z,9.23
2023-02-25T00:32:38.460Z,8.90
2023-02-25T00:35:06.161Z,9.07
2023-02-25T00:37:32.968Z,9.00
2023-02-25T00:39:59.753Z,9.23
2023-02-25T00:42:26.670Z,9.77
2023-02-25T00:44:53.996Z,9.67
2023-02-25T00:47:21.281Z,9.97
2023-02-25T00:49:49.150Z,10.40
2023-02-25T00:52:16.645Z,11.03
2023-02-25T00:54:43.750Z,11.13
2023-02-25T00:57:10.697Z,11.47
2023-02-25T00:59:37.527Z,10.90
2023-02-25T01:02:04.362Z,10.87
2023-02-25T01:04:31.567Z,10.93
2023-02-25T01:06:58.948Z,11.27
2023-02-25T01:09:25.924Z,11.87
2023-02-25T01:11:53.150Z,11.43
2023-02-25T01:14:23.506Z,11.93
2023-02-25T01:16:51.492Z,12.57
2023-02-25T01:19:22.113Z,12.97
2023-02-25T01:21:51.749Z,12.33
2023-02-25T01:24:24.828Z,12.40
2023-02-25T01:26:53.574Z,12.00
2023-02-25T01:29:39.266Z,11.50
2023-02-25T01:32:13.863Z,10.57
2023-02-25T01:34:41.349Z,11.00
2023-02-25T01:37:08.469Z,10.60
2023-02-25T01:39:35.287Z,10.47
2023-02-25T01:42:16.717Z,10.13
2023-02-25T01:45:17.870Z,10.57
2023-02-25T01:47:56.970Z,10.43
2023-02-25T01:50:28.995Z,10.57
2023-02-25T01:52:58.914Z,10.07
2023-02-25T01:55:25.788Z,10.40
2023-02-25T01:57:52.654Z,10.87
2023-02-25T02:00:19.676Z,11.20
2023-02-25T02:02:49.688Z,11.17
2023-02-25T02:05:16.788Z,11.00
2023-02-25T02:07:43.651Z,10.37
2023-02-25T02:10:11.253Z,11.83
2023-02-25T02:12:42.607Z,10.63
2023-02-25T02:15:12.714Z,10.97
2023-02-25T02:17:46.027Z,10.47
2023-02-25T02:20:15.977Z,11.17
2023-02-25T02:23:22.171Z,10.87
2023-02-25T02:25:55.696Z,10.43
2023-02-25T02:28:43.860Z,10.83
2023-02-25T02:31:48.335Z,10.67
2023-02-25T02:34:40.156Z,10.70
2023-02-25T02:37:31.768Z,10.13
2023-02-25T02:40:15.264Z,10.67
2023-02-25T02:43:06.833Z,10.90
2023-02-25T02:45:53.841Z,10.57
2023-02-25T02:48:53.833Z,10.37
2023-02-25T02:51:30.338Z,10.13
2023-02-25T02:54:00.629Z,10.20
2023-02-25T02:56:30.434Z,10.70
2023-02-25T02:59:14.843Z,11.23
2023-02-25T03:01:56.293Z,10.43
2023-02-25T03:04:30.908Z,10.40
2023-02-25T03:07:02.949Z,11.23
2023-02-25T03:09:44.010Z,10.70
2023-02-25T03:12:10.894Z,10.33
2023-02-25T03:14:38.123Z,10.20
2023-02-25T03:17:27.568Z,10.63
2023-02-25T03:20:10.367Z,9.50
2023-02-25T03:22:41.866Z,11.27
2023-02-25T03:25:31.741Z,10.63
2023-02-25T03:28:16.608Z,10.33
2023-02-25T03:31:13.952Z,10.77
2023-02-25T03:33:55.148Z,10.90
2023-02-25T03:36:28.078Z,10.97
2023-02-25T03:38:59.273Z,11.40
2023-02-25T03:41:30.909Z,10.97
2023-02-25T03:43:59.263Z,10.57
2023-02-25T03:46:28.481Z,11.47
2023-02-25T03:48:56.238Z,11.20
2023-02-25T03:51:30.565Z,9.40
2023-02-25T03:53:57.418Z,9.07
2023-02-25T03:56:24.654Z,9.27
2023-02-25T03:58:51.674Z,9.43
2023-02-25T04:01:24.942Z,9.63
2023-02-25T04:03:51.799Z,8.80
2023-02-25T04:06:23.299Z,8.77
2023-02-25T04:08:51.535Z,9.20
2023-02-25T04:11:18.338Z,9.60
2023-02-25T04:13:45.100Z,9.73
2023-02-25T04:16:11.996Z,10.00
2023-02-25T04:18:38.872Z,10.20
2023-02-25T04:21:09.935Z,10.33
2023-02-25T04:23:37.021Z,10.43
2023-02-25T04:26:04.131Z,10.23
2023-02-25T04:28:31.283Z,10.40
2023-02-25T04:30:58.370Z,10.27
2023-02-25T04:33:25.226Z,10.97
2023-02-25T04:35:52.157Z,9.97
2023-02-25T04:38:18.962Z,10.40
2023-02-25T04:40:45.786Z,10.47
2023-02-25T04:43:12.602Z,10.70
2023-02-25T04:45:39.354Z,10.13
2023-02-25T04:48:06.357Z,10.37
2023-02-25T04:50:33.312Z,10.67
2023-02-25T04:53:02.292Z,10.83
2023-02-25T04:55:30.371Z,11.37
2023-02-25T04:57:57.188Z,10.90
2023-02-25T05:00:27.042Z,11.33
2023-02-25T05:02:54.127Z,10.73
2023-02-25T05:05:21.310Z,11.07
2023-02-25T05:07:51.510Z,10.57
2023-02-25T05:10:18.371Z,11.13
2023-02-25T05:12:45.213Z,10.67
2023-02-25T05:15:12.315Z,10.20
2023-02-25T05:17:39.399Z,10.53
2023-02-25T05:20:12.997Z,11.17
2023-02-25T05:22:41.672Z,10.47
2023-02-25T05:25:10.071Z,9.97
2023-02-25T05:27:36.995Z,10.13
2023-02-25T05:30:04.217Z,9.97
2023-02-25T05:32:32.212Z,10.93
2023-02-25T05:34:59.177Z,10.53
2023-02-25T05:37:26.178Z,9.73
2023-02-25T05:39:53.015Z,9.97
2023-02-25T05:42:19.938Z,10.03
2023-02-25T05:44:46.746Z,9.77
2023-02-25T05:47:15.165Z,9.87
2023-02-25T05:49:42.833Z,10.57
2023-02-25T05:52:11.152Z,9.40
2023-02-25T05:54:38.167Z,10.30
2023-02-25T05:57:05.679Z,9.60
2023-02-25T05:59:33.062Z,9.73
2023-02-25T06:02:00.009Z,9.67
2023-02-25T06:04:26.981Z,9.80
2023-02-25T06:06:53.808Z,9.50
2023-02-25T06:09:21.454Z,10.10
2023-02-25T06:11:49.741Z,10.60
2023-02-25T06:14:16.622Z,10.13
2023-02-25T06:16:44.559Z,10.93
2023-02-25T06:19:12.245Z,10.73
2023-02-25T06:21:39.737Z,10.07
2023-02-25T06:24:07.228Z,10.70
2023-02-25T06:26:35.472Z,10.37
2023-02-25T06:29:02.401Z,10.50
2023-02-25T06:31:29.266Z,10.90
2023-02-25T06:33:56.205Z,10.70
2023-02-25T06:36:23.500Z,10.87
2023-02-25T06:38:50.596Z,11.57
2023-02-25T06:41:21.077Z,11.73
2023-02-25T06:43:52.147Z,11.70
2023-02-25T06:46:25.060Z,12.07
2023-02-25T06:48:53.528Z,12.07
2023-02-25T06:51:20.312Z,12.20
2023-02-25T06:53:47.749Z,12.63
2023-02-25T06:56:15.726Z,12.67
2023-02-25T06:58:42.891Z,12.67
2023-02-25T07:01:12.526Z,12.80
2023-02-25T07:03:39.949Z,13.93
2023-02-25T07:06:07.331Z,13.57
2023-02-25T07:08:34.196Z,14.03
2023-02-25T07:11:19.304Z,13.40
2023-02-25T07:13:50.266Z,13.43
2023-02-25T07:16:17.791Z,14.40
2023-02-25T07:18:45.374Z,13.90
2023-02-25T07:21:12.488Z,14.27
2023-02-25T07:23:39.555Z,14.43
2023-02-25T07:26:08.514Z,14.80
2023-02-25T07:28:35.816Z,14.23
2023-02-25T07:31:19.373Z,14.37
2023-02-25T07:33:46.742Z,14.27
2023-02-25T07:36:14.960Z,13.47
2023-02-25T07:38:42.058Z,13.97
2023-02-25T07:41:11.990Z,14.30
2023-02-25T07:43:39.941Z,13.33
2023-02-25T07:46:07.603Z,13.60
2023-02-25T07:48:34.640Z,12.80
2023-02-25T07:51:13.239Z,12.80
2023-02-25T07:53:40.234Z,13.37
2023-02-25T07:56:08.498Z,13.63
2023-02-25T07:58:36.404Z,12.97
2023-02-25T08:01:19.616Z,12.40
2023-02-25T08:03:49.259Z,14.27
2023-02-25T08:06:16.037Z,14.23
2023-02-25T08:08:42.912Z,14.53
2023-02-25T08:11:11.960Z,13.40
2023-02-25T08:13:39.363Z,13.47
2023-02-25T08:16:11.468Z,14.20
2023-02-25T08:18:42.961Z,13.73
2023-02-25T08:21:11.558Z,13.27
2023-02-25T08:23:38.924Z,13.53
2023-02-25T08:26:06.712Z,13.90
2023-02-25T08:28:36.945Z,13.53
2023-02-25T08:31:04.845Z,12.27
2023-02-25T08:33:32.094Z,12.27
2023-02-25T08:36:09.586Z,13.57
2023-02-25T08:38:38.854Z,11.83
2023-02-25T08:41:06.995Z,11.87
2023-02-25T08:43:34.018Z,12.17
2023-02-25T08:46:02.420Z,11.20
2023-02-25T08:48:29.667Z,11.53
2023-02-25T08:50:56.547Z,10.73
2023-02-25T08:53:23.530Z,14.23
2023-02-25T08:55:51.142Z,11.30
2023-02-25T08:58:17.972Z,11.37
2023-02-25T09:00:44.825Z,10.03
2023-02-25T09:03:11.629Z,10.63
2023-02-25T09:05:38.471Z,10.63
2023-02-25T09:08:05.329Z,10.70
2023-02-25T09:10:48.193Z,10.00
2023-02-25T09:13:17.331Z,10.07
2023-02-25T09:15:44.303Z,10.37
2023-02-25T09:18:11.876Z,10.37
2023-02-25T09:20:39.032Z,9.77
2023-02-25T09:23:05.836Z,9.47
2023-02-25T09:25:32.702Z,10.53
2023-02-25T09:27:59.484Z,10.03
2023-02-25T09:30:26.720Z,9.83
2023-02-25T09:32:53.767Z,9.87
2023-02-25T09:35:20.685Z,9.90
2023-02-25T09:37:48.249Z,9.63
2023-02-25T09:40:18.812Z,9.50
2023-02-25T09:43:19.656Z,8.37
2023-02-25T09:45:49.238Z,7.57
2023-02-25T09:48:31.393Z,8.30
2023-02-25T09:51:10.539Z,7.70
2023-02-25T09:53:45.495Z,7.60
2023-02-25T09:56:15.161Z,6.60
2023-02-25T09:58:52.379Z,6.57
2023-02-25T10:01:38.756Z,6.57
2023-02-25T10:04:22.280Z,5.50
2023-02-25T10:06:50.944Z,5.30
2023-02-25T10:09:35.953Z,5.00
2023-02-25T10:12:53.199Z,5.13
2023-02-25T10:15:52.841Z,4.93
2023-02-25T10:18:33.205Z,5.57
2023-02-25T10:21:15.518Z,5.03
2023-02-25T10:23:45.139Z,6.00
2023-02-25T10:26:25.208Z,5.20
2023-02-25T10:28:59.491Z,5.27
2023-02-25T10:31:27.432Z,5.07
2023-02-25T10:33:55.503Z,4.50
2023-02-25T10:36:32.170Z,3.20
2023-02-25T10:39:05.749Z,3.70
2023-02-25T10:41:36.270Z,3.30
2023-02-25T10:44:03.248Z,4.40
2023-02-25T10:46:41.821Z,4.03
2023-02-25T10:49:23.169Z,4.03
2023-02-25T10:52:03.077Z,4.00
2023-02-25T10:54:35.748Z,3.67
2023-02-25T10:57:13.728Z,4.03
2023-02-25T10:59:43.089Z,3.70
2023-02-25T11:02:28.697Z,4.23
2023-02-25T11:04:56.343Z,4.40
2023-02-25T11:07:43.464Z,3.97
2023-02-25T11:10:21.291Z,4.00
2023-02-25T11:12:58.117Z,3.70
2023-02-25T11:15:46.067Z,3.57
2023-02-25T11:18:27.804Z,4.17
2023-02-25T11:21:07.659Z,4.27
2023-02-25T11:23:42.361Z,4.27
2023-02-25T11:26:15.519Z,4.40
2023-02-25T11:28:48.751Z,4.30
2023-02-25T11:31:25.152Z,4.60
2023-02-25T11:34:01.905Z,4.63
2023-02-25T11:36:41.871Z,5.27
2023-02-25T11:39:24.322Z,5.00
2023-02-25T11:41:54.375Z,5.17
2023-02-25T11:44:31.791Z,5.10
2023-02-25T11:47:16.636Z,5.20
2023-02-25T11:50:00.506Z,5.40
2023-02-25T11:53:13.399Z,5.07
2023-02-25T11:56:04.745Z,4.70
2023-02-25T11:58:46.429Z,4.30
2023-02-25T12:01:57.964Z,4.53
2023-02-25T12:04:52.991Z,4.70
2023-02-25T12:07:55.430Z,4.20
2023-02-25T12:10:50.348Z,4.33
2023-02-25T12:13:40.101Z,4.70
2023-02-25T12:16:25.715Z,4.40
2023-02-25T12:19:12.946Z,4.07
2023-02-25T12:22:01.387Z,3.50
2023-02-25T12:24:51.744Z,4.20
2023-02-25T12:27:44.180Z,3.90
2023-02-25T12:30:41.274Z,4.37
2023-02-25T12:33:31.874Z,4.37
2023-02-25T12:36:05.539Z,3.63
2023-02-25T12:38:50.906Z,3.40
2023-02-25T12:41:33.971Z,3.37
2023-02-25T12:44:31.583Z,3.40
2023-02-25T12:47:23.279Z,3.47
2023-02-25T12:50:15.957Z,3.90
2023-02-25T12:52:48.875Z,3.83
2023-02-25T12:55:42.036Z,4.40
2023-02-25T12:58:35.850Z,4.57
2023-02-25T13:01:41.028Z,3.90
2023-02-25T13:04:16.645Z,3.87
2023-02-25T13:06:58.498Z,3.60
2023-02-25T13:09:40.343Z,3.60
2023-02-25T13:12:15.795Z,3.50
2023-02-25T13:15:11.768Z,3.40
2023-02-25T13:18:03.922Z,3.20
2023-02-25T13:20:49.114Z,3.00
2023-02-25T13:23:53.786Z,2.50
2023-02-25T13:26:27.485Z,2.60
2023-02-25T13:29:00.500Z,2.87
2023-02-25T13:31:39.831Z,3.10
2023-02-25T13:34:29.317Z,3.40
2023-02-25T13:37:07.012Z,3.47
2023-02-25T13:39:42.941Z,3.93
2023-02-25T13:42:46.165Z,3.67
2023-02-25T13:45:37.359Z,3.47
2023-02-25T13:48:39.069Z,3.43
2023-02-25T13:51:37.224Z,3.70
2023-02-25T13:54:22.101Z,3.43
2023-02-25T13:57:10.026Z,3.73
2023-02-25T14:00:01.090Z,3.50
2023-02-25T14:02:54.209Z,2.63
2023-02-25T14:05:50.430Z,2.40
2023-02-25T14:08:41.118Z,2.00
2023-02-25T14:11:26.956Z,2.10
2023-02-25T14:13:56.931Z,1.60
2023-02-25T14:17:11.920Z,1.70
2023-02-25T14:19:57.970Z,2.13
2023-02-25T14:22:41.490Z,1.90
2023-02-25T14:25:37.776Z,2.20
2023-02-25T14:28:49.310Z,2.20
2023-02-25T14:31:25.391Z,2.43
2023-02-25T14:34:09.835Z,2.50
2023-02-25T14:37:10.090Z,2.40
2023-02-25T14:40:06.119Z,2.50
2023-02-25T14:43:07.110Z,2.40
2023-02-25T14:45:54.000Z,2.90
2023-02-25T14:48:47.442Z,2.67
2023-02-25T14:51:44.957Z,3.00
2023-02-25T14:54:49.153Z,3.90
2023-02-25T14:57:24.879Z,3.80
2023-02-25T15:00:30.164Z,4.30
2023-02-25T15:03:08.703Z,4.10
2023-02-25T15:05:50.021Z,4.10
2023-02-25T15:08:42.193Z,4.60
2023-02-25T15:11:31.273Z,4.20
2023-02-25T15:14:16.708Z,4.03
2023-02-25T15:16:49.157Z,3.50
2023-02-25T15:19:27.468Z,3.53
2023-02-25T15:22:14.255Z,4.20
2023-02-25T15:24:42.635Z,3.63
2023-02-25T15:27:32.312Z,3.63
2023-02-25T15:30:00.808Z,4.20
2023-02-25T15:32:31.103Z,3.63
2023-02-25T15:35:08.482Z,4.33
2023-02-25T15:37:38.831Z,4.33
2023-02-25T15:40:14.816Z,4.53
2023-02-25T15:42:57.336Z,5.33
2023-02-25T15:45:36.982Z,4.80
2023-02-25T15:48:12.597Z,4.83
2023-02-25T15:50:42.498Z,4.50
2023-02-25T15:53:09.635Z,4.80
2023-02-25T15:55:39.864Z,5.10
2023-02-25T15:58:25.191Z,4.93
2023-02-25T16:00:52.218Z,4.60
2023-02-25T16:03:38.338Z,5.53
2023-02-25T16:06:07.123Z,5.57
2023-02-25T16:08:50.393Z,5.57
2023-02-25T16:11:38.924Z,5.40
2023-02-25T16:14:19.782Z,6.20
2023-02-25T16:17:04.193Z,6.80
2023-02-25T16:19:35.958Z,6.43
2023-02-25T16:22:20.084Z,7.20
2023-02-25T16:24:53.002Z,7.77
2023-02-25T16:27:44.733Z,7.77
2023-02-25T16:30:54.362Z,9.20
2023-02-25T16:33:33.178Z,8.03
2023-02-25T16:36:10.998Z,7.73
2023-02-25T16:38:53.249Z,7.80
2023-02-25T16:41:22.346Z,7.53
2023-02-25T16:43:52.614Z,7.87
2023-02-25T16:46:27.964Z,7.97
2023-02-25T16:49:01.661Z,7.77
2023-02-25T16:51:34.459Z,10.48
2023-02-25T16:54:11.123Z,8.93
2023-02-25T16:56:39.655Z,8.63
2023-02-25T16:59:15.761Z,9.30
2023-02-25T17:01:48.280Z,8.75
2023-02-25T17:04:30.090Z,8.17
2023-02-25T17:07:11.830Z,7.27
2023-02-25T17:09:50.969Z,5.97
2023-02-25T17:12:30.128Z,6.70
2023-02-25T17:15:00.103Z,5.90
2023-02-25T17:17:36.989Z,6.43
2023-02-25T17:20:09.830Z,6.57
2023-02-25T17:22:38.134Z,6.93
2023-02-25T17:25:06.537Z,7.47
2023-02-25T17:27:37.215Z,7.03
2023-02-25T17:30:06.218Z,8.50
2023-02-25T17:32:33.065Z,7.27
2023-02-25T17:35:07.168Z,6.47
2023-02-25T17:37:35.194Z,5.80
2023-02-25T17:40:08.429Z,8.32
2023-02-25T17:42:38.959Z,6.90
2023-02-25T17:45:27.142Z,7.10
2023-02-25T17:47:54.050Z,7.10
2023-02-25T17:50:31.570Z,6.97
2023-02-25T17:53:38.920Z,7.70
2023-02-25T17:56:26.364Z,7.70
2023-02-25T17:59:13.620Z,7.63
2023-02-25T18:01:54.915Z,8.17
2023-02-25T18:04:41.248Z,8.40
2023-02-25T18:07:20.165Z,8.73
2023-02-25T18:09:47.240Z,9.00
2023-02-25T18:12:27.850Z,8.80
2023-02-25T18:15:02.975Z,8.23
2023-02-25T18:17:53.059Z,8.10
2023-02-25T18:20:25.768Z,7.60
2023-02-25T18:22:53.598Z,6.83
2023-02-25T18:25:35.257Z,6.87
2023-02-25T18:28:03.180Z,6.93
2023-02-25T18:30:32.170Z,7.30
2023-02-25T18:32:59.907Z,7.43
2023-02-25T18:35:28.589Z,7.50
2023-02-25T18:37:57.808Z,7.40
2023-02-25T18:40:40.665Z,7.47
2023-02-25T18:43:10.159Z,8.17
2023-02-25T18:45:37.142Z,8.53
2023-02-25T18:48:04.058Z,8.30
2023-02-25T18:50:32.644Z,9.33
2023-02-25T18:53:00.605Z,9.93
2023-02-25T18:55:32.941Z,10.03
2023-02-25T18:58:01.174Z,10.13
2023-02-25T19:00:28.543Z,10.40
2023-02-25T19:02:58.748Z,11.17
2023-02-25T19:05:27.012Z,10.53
2023-02-25T19:07:54.211Z,10.90
2023-02-25T19:10:29.594Z,10.40
2023-02-25T19:13:03.647Z,10.00
2023-02-25T19:15:30.625Z,11.00
2023-02-25T19:17:57.761Z,11.67
2023-02-25T19:20:24.816Z,11.63
2023-02-25T19:22:53.061Z,11.80
2023-02-25T19:25:26.080Z,12.40
2023-02-25T19:27:55.620Z,12.30
2023-02-25T19:30:25.280Z,12.63
2023-02-25T19:32:52.496Z,11.90
2023-02-25T19:35:19.320Z,12.70
2023-02-25T19:37:46.186Z,12.53
2023-02-25T19:40:15.685Z,11.87
2023-02-25T19:42:44.580Z,10.77
2023-02-25T19:45:14.850Z,10.50
2023-02-25T19:47:42.222Z,10.27
2023-02-25T19:50:11.700Z,10.53
2023-02-25T19:52:39.438Z,9.13
2023-02-25T19:55:07.663Z,9.33
2023-02-25T19:57:34.702Z,8.63
2023-02-25T20:00:01.794Z,8.77
2023-02-25T20:02:28.594Z,7.73
2023-02-25T20:04:55.382Z,7.93
2023-02-25T20:07:22.303Z,7.40
2023-02-25T20:09:49.285Z,7.20
2023-02-25T20:12:18.414Z,6.93
2023-02-25T20:14:45.328Z,6.87
2023-02-25T20:17:12.144Z,6.90
2023-02-25T20:19:38.945Z,5.93
2023-02-25T20:22:06.187Z,6.13
2023-02-25T20:24:33.973Z,6.07
2023-02-25T20:27:01.270Z,6.57
2023-02-25T20:29:29.013Z,6.57
2023-02-25T20:31:59.206Z,5.60
2023-02-25T20:34:29.499Z,6.17
2023-02-25T20:37:19.061Z,5.97
2023-02-25T20:39:55.017Z,6.03
2023-02-25T20:42:31.072Z,5.97
2023-02-25T20:44:59.027Z,6.17
2023-02-25T20:47:29.369Z,6.10
2023-02-25T20:49:58.281Z,7.70
2023-02-25T20:52:26.840Z,6.03
2023-02-25T20:54:54.981Z,5.93
2023-02-25T20:57:24.508Z,5.77
2023-02-25T20:59:51.578Z,5.93
2023-02-25T21:02:18.508Z,5.60
2023-02-25T21:04:45.628Z,5.57
2023-02-25T21:07:13.132Z,5.03
2023-02-25T21:09:40.290Z,5.40
2023-02-25T21:12:07.913Z,5.47
2023-02-25T21:14:34.768Z,4.53
2023-02-25T21:17:01.665Z,4.57
2023-02-25T21:19:28.539Z,4.80
2023-02-25T21:21:56.031Z,4.67
2023-02-25T21:24:23.215Z,4.27
2023-02-25T21:26:50.038Z,4.07
2023-02-25T21:29:16.876Z,4.07
2023-02-25T21:31:44.169Z,4.00
2023-02-25T21:34:13.098Z,4.00
2023-02-25T21:36:41.285Z,4.27
2023-02-25T21:39:09.669Z,3.90
2023-02-25T21:41:39.359Z,4.23
2023-02-25T21:44:06.270Z,4.30
2023-02-25T21:46:33.202Z,4.70
2023-02-25T21:49:00.116Z,4.23
2023-02-25T21:51:28.895Z,4.47
2023-02-25T21:53:58.301Z,4.00
2023-02-25T21:56:26.145Z,3.57
2023-02-25T21:58:58.257Z,2.83
2023-02-25T22:01:27.913Z,2.97
2023-02-25T22:03:55.241Z,3.17
2023-02-25T22:06:26.126Z,3.37
2023-02-25T22:08:57.376Z,3.40
2023-02-25T22:11:30.157Z,3.10
2023-02-25T22:13:59.277Z,2.70
2023-02-25T22:16:26.986Z,3.00
2023-02-25T22:18:54.147Z,2.90
2023-02-25T22:21:26.840Z,3.27
2023-02-25T22:23:59.561Z,3.10
2023-02-25T22:26:29.488Z,4.00
2023-02-25T22:29:02.498Z,4.30
2023-02-25T22:31:29.979Z,4.50
2023-02-25T22:34:01.729Z,4.57
2023-02-25T22:36:32.170Z,4.27
2023-02-25T22:38:59.051Z,4.40
2023-02-25T22:41:29.351Z,3.87
2023-02-25T22:43:58.043Z,3.80
2023-02-25T22:46:31.182Z,3.57
2023-02-25T22:48:58.694Z,3.53
2023-02-25T22:51:29.366Z,3.50
2023-02-25T22:53:57.145Z,4.20
2023-02-25T22:56:25.492Z,3.40
2023-02-25T22:58:52.893Z,3.50
2023-02-25T23:01:21.911Z,3.50
2023-02-25T23:03:49.935Z,3.23
2023-02-25T23:06:18.793Z,3.20
2023-02-25T23:08:46.102Z,3.10
2023-02-25T23:11:24.908Z,3.50
2023-02-25T23:13:53.754Z,3.40
2023-02-25T23:16:24.801Z,3.30
2023-02-25T23:18:53.346Z,3.70
2023-02-25T23:21:20.357Z,3.20
2023-02-25T23:23:51.716Z,3.50
2023-02-25T23:26:22.023Z,3.50
2023-02-25T23:28:49.214Z,3.60
2023-02-25T23:31:20.263Z,3.60
2023-02-25T23:33:47.786Z,3.30
2023-02-25T23:36:15.162Z,3.10
2023-02-25T23:38:42.058Z,3.50
2023-02-25T23:41:09.780Z,3.50
2023-02-25T23:43:40.740Z,3.53
2023-02-25T23:46:07.964Z,3.50
2023-02-25T23:48:34.816Z,3.43
2023-02-25T23:51:06.806Z,3.23
2023-02-25T23:53:33.859Z,3.10
2023-02-25T23:56:08.673Z,3.13
2023-02-25T23:58:35.917Z,3.30
